Terminal Aerodrome Forecast
Issued by NWS

Home | Current Version | Previous Version | Text Only | Print | Product List | Glossary On
Versions: 1 2 3 4 5 6 7 8 9 10 11 12 13 14 15 16 17
000
FTUS43 KAPX 161720
TAFAPN
TAF
KAPN 161720Z 1618/1718 23006KT P6SM SKC
     FM170500 VRB03KT P6SM VCSH BKN090
     FM170800 12004KT 3SM -SN BR OVC015
     FM171200 10007KT 1 1/2SM -SN BR OVC008
     FM171500 08009KT 3/4SM -FZRA BR OVC008
     FM171700 08009KT 1/2SM -FZRA FG OVC003=

USA.gov is the U.S. government's official web portal to all federal, state and local government web resources and services.